sensor_id;sensor_type;location;lat;lon;timestamp;pressure;altitude;pressure_sealevel;temperature;humidity
41596;BME280;27283;52.504;13.358;2023-05-25T00:01:47;101943.97;;;10.44;86.25
41596;BME280;27283;52.504;13.358;2023-05-25T00:04:22;101940.72;;;10.41;86.51
41596;BME280;27283;52.504;13.358;2023-05-25T00:06:57;101940.16;;;10.37;86.73
41596;BME280;27283;52.504;13.358;2023-05-25T00:09:30;101940.41;;;10.34;87.26
41596;BME280;27283;52.504;13.358;2023-05-25T00:12:02;101941.63;;;10.30;87.40
41596;BME280;27283;52.504;13.358;2023-05-25T00:14:37;101946.13;;;10.29;87.46
41596;BME280;27283;52.504;13.358;2023-05-25T00:17:09;101949.97;;;10.27;87.65
41596;BME280;27283;52.504;13.358;2023-05-25T00:19:42;101945.44;;;10.27;87.13
41596;BME280;27283;52.504;13.358;2023-05-25T00:22:17;101945.84;;;10.23;87.82
41596;BME280;27283;52.504;13.358;2023-05-25T00:24:50;101940.75;;;10.29;87.19
41596;BME280;27283;52.504;13.358;2023-05-25T00:27:22;101942.22;;;10.34;86.84
41596;BME280;27283;52.504;13.358;2023-05-25T00:29:54;101945.91;;;10.33;86.75
41596;BME280;27283;52.504;13.358;2023-05-25T00:32:26;101947.34;;;10.37;86.92
41596;BME280;27283;52.504;13.358;2023-05-25T00:34:58;101948.34;;;10.36;87.17
41596;BME280;27283;52.504;13.358;2023-05-25T00:37:33;101949.75;;;10.40;86.81
41596;BME280;27283;52.504;13.358;2023-05-25T00:40:08;101940.44;;;10.44;87.06
41596;BME280;27283;52.504;13.358;2023-05-25T00:42:41;101941.00;;;10.38;87.47
41596;BME280;27283;52.504;13.358;2023-05-25T00:45:15;101943.97;;;10.44;87.19
41596;BME280;27283;52.504;13.358;2023-05-25T00:47:50;101940.72;;;10.51;86.55
41596;BME280;27283;52.504;13.358;2023-05-25T00:50:35;101940.59;;;10.52;86.20
41596;BME280;27283;52.504;13.358;2023-05-25T00:53:12;101943.41;;;10.51;85.98
41596;BME280;27283;52.504;13.358;2023-05-25T00:55:47;101945.47;;;10.58;84.91
41596;BME280;27283;52.504;13.358;2023-05-25T00:58:39;101941.47;;;10.53;85.36
41596;BME280;27283;52.504;13.358;2023-05-25T01:01:12;101943.88;;;10.56;84.61
41596;BME280;27283;52.504;13.358;2023-05-25T01:03:51;101933.13;;;10.56;84.27
41596;BME280;27283;52.504;13.358;2023-05-25T01:06:25;101938.91;;;10.51;84.43
41596;BME280;27283;52.504;13.358;2023-05-25T01:09:08;101939.06;;;10.50;84.43
41596;BME280;27283;52.504;13.358;2023-05-25T01:11:50;101927.97;;;10.43;85.04
41596;BME280;27283;52.504;13.358;2023-05-25T01:14:23;101935.34;;;10.41;85.23
41596;BME280;27283;52.504;13.358;2023-05-25T01:16:56;101940.19;;;10.26;86.46
41596;BME280;27283;52.504;13.358;2023-05-25T01:19:31;101944.72;;;10.25;86.59
41596;BME280;27283;52.504;13.358;2023-05-25T01:22:14;101937.91;;;10.21;86.33
41596;BME280;27283;52.504;13.358;2023-05-25T01:24:52;101942.31;;;10.22;86.55
41596;BME280;27283;52.504;13.358;2023-05-25T01:27:30;101950.78;;;10.18;86.63
41596;BME280;27283;52.504;13.358;2023-05-25T01:30:05;101937.75;;;10.13;87.00
41596;BME280;27283;52.504;13.358;2023-05-25T01:32:40;101943.25;;;10.11;87.12
41596;BME280;27283;52.504;13.358;2023-05-25T01:35:14;101938.00;;;10.10;86.98
41596;BME280;27283;52.504;13.358;2023-05-25T01:37:51;101940.69;;;10.10;87.11
41596;BME280;27283;52.504;13.358;2023-05-25T01:40:23;101942.50;;;10.09;87.26
41596;BME280;27283;52.504;13.358;2023-05-25T01:42:55;101951.44;;;10.10;87.09
41596;BME280;27283;52.504;13.358;2023-05-25T01:45:28;101943.63;;;10.07;87.51
41596;BME280;27283;52.504;13.358;2023-05-25T01:48:07;101949.41;;;10.02;87.63
41596;BME280;27283;52.504;13.358;2023-05-25T01:50:49;101945.03;;;10.01;87.75
41596;BME280;27283;52.504;13.358;2023-05-25T01:53:29;101952.34;;;9.99;88.15
41596;BME280;27283;52.504;13.358;2023-05-25T01:56:15;101939.31;;;9.94;88.43
41596;BME280;27283;52.504;13.358;2023-05-25T01:58:50;101941.28;;;9.92;88.68
41596;BME280;27283;52.504;13.358;2023-05-25T02:01:25;101950.59;;;9.88;89.31
41596;BME280;27283;52.504;13.358;2023-05-25T02:04:03;101935.72;;;9.84;89.71
41596;BME280;27283;52.504;13.358;2023-05-25T02:06:37;101950.16;;;9.83;89.66
41596;BME280;27283;52.504;13.358;2023-05-25T02:09:12;101941.47;;;9.80;89.82
41596;BME280;27283;52.504;13.358;2023-05-25T02:11:45;101939.47;;;9.72;90.37
41596;BME280;27283;52.504;13.358;2023-05-25T02:14:18;101938.03;;;9.68;90.80
41596;BME280;27283;52.504;13.358;2023-05-25T02:16:54;101935.50;;;9.66;90.89
41596;BME280;27283;52.504;13.358;2023-05-25T02:19:30;101939.28;;;9.64;90.96
41596;BME280;27283;52.504;13.358;2023-05-25T02:22:02;101939.66;;;9.59;91.44
41596;BME280;27283;52.504;13.358;2023-05-25T02:24:36;101943.59;;;9.55;92.28
41596;BME280;27283;52.504;13.358;2023-05-25T02:27:08;101949.09;;;9.53;91.99
41596;BME280;27283;52.504;13.358;2023-05-25T02:29:40;101951.06;;;9.51;92.39
41596;BME280;27283;52.504;13.358;2023-05-25T02:32:13;101951.44;;;9.47;92.76
41596;BME280;27283;52.504;13.358;2023-05-25T02:34:45;101954.28;;;9.45;93.73
41596;BME280;27283;52.504;13.358;2023-05-25T02:37:25;101951.34;;;9.37;94.31
41596;BME280;27283;52.504;13.358;2023-05-25T02:40:00;101949.50;;;9.37;94.72
41596;BME280;27283;52.504;13.358;2023-05-25T02:42:32;101954.44;;;9.32;94.85
41596;BME280;27283;52.504;13.358;2023-05-25T02:45:06;101944.06;;;9.28;95.40
41596;BME280;27283;52.504;13.358;2023-05-25T02:47:38;101943.81;;;9.31;95.53
41596;BME280;27283;52.504;13.358;2023-05-25T02:50:23;101951.75;;;9.32;95.31
41596;BME280;27283;52.504;13.358;2023-05-25T02:54:05;101947.72;;;9.27;95.62
41596;BME280;27283;52.504;13.358;2023-05-25T02:57:11;101948.72;;;9.26;96.62
41596;BME280;27283;52.504;13.358;2023-05-25T02:59:43;101944.91;;;9.28;96.49
41596;BME280;27283;52.504;13.358;2023-05-25T03:02:15;101945.78;;;9.29;96.44
41596;BME280;27283;52.504;13.358;2023-05-25T03:04:48;101946.38;;;9.32;96.62
41596;BME280;27283;52.504;13.358;2023-05-25T03:07:21;101941.72;;;9.34;96.52
41596;BME280;27283;52.504;13.358;2023-05-25T03:09:54;101944.63;;;9.43;96.13
41596;BME280;27283;52.504;13.358;2023-05-25T03:12:39;101951.34;;;9.37;95.67
41596;BME280;27283;52.504;13.358;2023-05-25T03:15:11;101948.41;;;9.40;96.20
41596;BME280;27283;52.504;13.358;2023-05-25T03:30:39;101954.72;;;9.50;96.76
41596;BME280;27283;52.504;13.358;2023-05-25T03:33:11;101966.91;;;9.54;96.62
41596;BME280;27283;52.504;13.358;2023-05-25T03:35:44;101969.34;;;9.57;96.20
41596;BME280;27283;52.504;13.358;2023-05-25T03:38:16;101972.47;;;9.63;96.23
41596;BME280;27283;52.504;13.358;2023-05-25T03:40:49;101975.16;;;9.63;96.48
41596;BME280;27283;52.504;13.358;2023-05-25T03:43:21;101972.09;;;9.67;95.92
41596;BME280;27283;52.504;13.358;2023-05-25T03:45:56;101966.06;;;9.75;95.85
41596;BME280;27283;52.504;13.358;2023-05-25T03:48:28;101971.91;;;9.80;95.53
41596;BME280;27283;52.504;13.358;2023-05-25T03:51:01;101974.66;;;9.90;94.77
41596;BME280;27283;52.504;13.358;2023-05-25T03:53:33;101969.94;;;9.82;95.29
41596;BME280;27283;52.504;13.358;2023-05-25T03:56:06;101971.66;;;9.83;95.43
41596;BME280;27283;52.504;13.358;2023-05-25T03:58:38;101981.47;;;9.94;94.84
41596;BME280;27283;52.504;13.358;2023-05-25T04:01:14;101974.44;;;10.03;94.65
41596;BME280;27283;52.504;13.358;2023-05-25T04:04:01;101988.41;;;10.18;93.92
41596;BME280;27283;52.504;13.358;2023-05-25T04:06:34;101987.47;;;10.28;93.54
41596;BME280;27283;52.504;13.358;2023-05-25T04:09:07;101984.44;;;10.43;92.96
41596;BME280;27283;52.504;13.358;2023-05-25T04:11:40;101987.31;;;10.51;92.41
41596;BME280;27283;52.504;13.358;2023-05-25T04:14:12;101984.97;;;10.37;93.16
41596;BME280;27283;52.504;13.358;2023-05-25T04:16:47;101991.84;;;10.29;93.41
41596;BME280;27283;52.504;13.358;2023-05-25T04:19:43;101990.72;;;10.01;94.99
41596;BME280;27283;52.504;13.358;2023-05-25T04:22:16;101999.97;;;10.08;95.91
41596;BME280;27283;52.504;13.358;2023-05-25T04:24:48;102000.06;;;10.07;96.17
41596;BME280;27283;52.504;13.358;2023-05-25T04:27:21;101992.66;;;10.20;95.10
41596;BME280;27283;52.504;13.358;2023-05-25T04:29:53;101995.53;;;10.28;94.18
41596;BME280;27283;52.504;13.358;2023-05-25T04:32:29;101995.19;;;10.22;94.39
41596;BME280;27283;52.504;13.358;2023-05-25T04:35:16;102011.47;;;10.20;94.92
41596;BME280;27283;52.504;13.358;2023-05-25T04:37:48;102006.41;;;10.27;94.74
41596;BME280;27283;52.504;13.358;2023-05-25T04:40:22;102008.78;;;10.20;95.07
41596;BME280;27283;52.504;13.358;2023-05-25T04:42:56;102010.88;;;10.17;95.82
41596;BME280;27283;52.504;13.358;2023-05-25T04:45:28;102019.78;;;10.17;96.04
41596;BME280;27283;52.504;13.358;2023-05-25T04:48:04;102006.63;;;10.14;96.77
41596;BME280;27283;52.504;13.358;2023-05-25T04:50:37;102005.28;;;10.29;96.47
41596;BME280;27283;52.504;13.358;2023-05-25T04:53:10;102015.06;;;10.31;96.02
41596;BME280;27283;52.504;13.358;2023-05-25T04:55:42;102008.19;;;10.38;95.94
41596;BME280;27283;52.504;13.358;2023-05-25T05:37:03;102026.75;;;15.08;71.67
41596;BME280;27283;52.504;13.358;2023-05-25T05:41:27;102025.09;;;14.20;74.89
41596;BME280;27283;52.504;13.358;2023-05-25T06:19:37;102044.81;;;16.41;64.97
41596;BME280;27283;52.504;13.358;2023-05-25T06:23:15;102049.00;;;17.47;63.40
41596;BME280;27283;52.504;13.358;2023-05-25T06:25:53;102046.53;;;17.61;59.51
41596;BME280;27283;52.504;13.358;2023-05-25T06:28:45;102044.16;;;17.58;62.01
41596;BME280;27283;52.504;13.358;2023-05-25T06:35:20;102056.34;;;17.62;58.95
41596;BME280;27283;52.504;13.358;2023-05-25T06:37:54;102053.19;;;18.04;58.15
41596;BME280;27283;52.504;13.358;2023-05-25T06:40:26;102055.69;;;18.59;56.10
41596;BME280;27283;52.504;13.358;2023-05-25T06:43:00;102057.69;;;18.80;56.47
41596;BME280;27283;52.504;13.358;2023-05-25T06:45:33;102056.06;;;19.01;56.79
41596;BME280;27283;52.504;13.358;2023-05-25T06:48:06;102060.31;;;19.03;54.49
41596;BME280;27283;52.504;13.358;2023-05-25T06:50:42;102057.41;;;19.78;55.18
41596;BME280;27283;52.504;13.358;2023-05-25T06:53:19;102055.50;;;19.78;54.07
41596;BME280;27283;52.504;13.358;2023-05-25T06:55:52;102059.47;;;19.97;53.36
41596;BME280;27283;52.504;13.358;2023-05-25T06:58:25;102051.84;;;19.50;52.15
41596;BME280;27283;52.504;13.358;2023-05-25T07:00:58;102054.28;;;19.44;51.70
41596;BME280;27283;52.504;13.358;2023-05-25T07:03:36;102050.91;;;19.06;54.34
41596;BME280;27283;52.504;13.358;2023-05-25T07:06:12;102053.88;;;19.84;51.80
41596;BME280;27283;52.504;13.358;2023-05-25T07:08:46;102064.88;;;20.19;50.99
41596;BME280;27283;52.504;13.358;2023-05-25T07:11:24;102055.31;;;20.30;50.92
41596;BME280;27283;52.504;13.358;2023-05-25T07:14:17;102057.63;;;20.61;48.20
41596;BME280;27283;52.504;13.358;2023-05-25T07:17:00;102053.97;;;20.82;48.50
41596;BME280;27283;52.504;13.358;2023-05-25T07:19:38;102062.50;;;19.88;49.11
41596;BME280;27283;52.504;13.358;2023-05-25T07:22:17;102053.69;;;20.42;47.76
41596;BME280;27283;52.504;13.358;2023-05-25T07:24:53;102054.28;;;19.08;50.04
41596;BME280;27283;52.504;13.358;2023-05-25T07:27:25;102052.38;;;19.81;49.85
41596;BME280;27283;52.504;13.358;2023-05-25T07:29:59;102061.03;;;19.48;47.30
41596;BME280;27283;52.504;13.358;2023-05-25T07:32:35;102063.00;;;20.83;45.51
41596;BME280;27283;52.504;13.358;2023-05-25T07:35:11;102058.16;;;20.50;44.56
41596;BME280;27283;52.504;13.358;2023-05-25T07:37:55;102057.72;;;20.46;43.63
41596;BME280;27283;52.504;13.358;2023-05-25T07:40:29;102064.84;;;20.69;43.79
41596;BME280;27283;52.504;13.358;2023-05-25T07:43:07;102060.47;;;20.46;46.27
41596;BME280;27283;52.504;13.358;2023-05-25T07:48:42;102072.75;;;19.64;44.78
41596;BME280;27283;52.504;13.358;2023-05-25T07:51:20;102076.13;;;20.31;43.50
41596;BME280;27283;52.504;13.358;2023-05-25T07:53:58;102076.38;;;21.54;42.92
41596;BME280;27283;52.504;13.358;2023-05-25T07:56:31;102071.09;;;21.04;42.13
41596;BME280;27283;52.504;13.358;2023-05-25T07:59:05;102071.03;;;19.41;45.20
41596;BME280;27283;52.504;13.358;2023-05-25T08:01:47;102078.13;;;19.36;45.93
41596;BME280;27283;52.504;13.358;2023-05-25T08:04:20;102080.13;;;20.35;44.11
41596;BME280;27283;52.504;13.358;2023-05-25T08:06:55;102072.22;;;20.75;44.92
41596;BME280;27283;52.504;13.358;2023-05-25T08:09:31;102079.16;;;20.43;44.49
41596;BME280;27283;52.504;13.358;2023-05-25T08:12:06;102079.75;;;20.66;42.76
41596;BME280;27283;52.504;13.358;2023-05-25T08:15:33;102075.94;;;19.68;45.41
41596;BME280;27283;52.504;13.358;2023-05-25T08:18:10;102081.47;;;20.46;43.96
41596;BME280;27283;52.504;13.358;2023-05-25T08:20:45;102076.19;;;21.83;40.75
41596;BME280;27283;52.504;13.358;2023-05-25T08:23:20;102071.00;;;21.33;39.32
41596;BME280;27283;52.504;13.358;2023-05-25T08:25:55;102072.38;;;20.10;42.00
41596;BME280;27283;52.504;13.358;2023-05-25T08:28:41;102075.06;;;20.95;40.62
41596;BME280;27283;52.504;13.358;2023-05-25T08:31:14;102077.28;;;21.82;40.17
41596;BME280;27283;52.504;13.358;2023-05-25T08:33:53;102071.19;;;21.24;41.85
41596;BME280;27283;52.504;13.358;2023-05-25T08:36:56;102079.66;;;21.43;41.69
41596;BME280;27283;52.504;13.358;2023-05-25T08:39:41;102079.69;;;20.31;41.16
41596;BME280;27283;52.504;13.358;2023-05-25T08:42:21;102079.31;;;19.70;44.08
41596;BME280;27283;52.504;13.358;2023-05-25T08:44:56;102071.41;;;20.75;43.10
41596;BME280;27283;52.504;13.358;2023-05-25T08:47:30;102071.09;;;21.53;42.68
41596;BME280;27283;52.504;13.358;2023-05-25T08:50:26;102079.59;;;20.46;43.55
41596;BME280;27283;52.504;13.358;2023-05-25T08:53:55;102081.22;;;19.33;45.89
41596;BME280;27283;52.504;13.358;2023-05-25T08:56:34;102078.84;;;18.25;48.14
41596;BME280;27283;52.504;13.358;2023-05-25T08:59:29;102090.69;;;18.32;48.56
41596;BME280;27283;52.504;13.358;2023-05-25T09:02:17;102083.66;;;20.29;44.77
41596;BME280;27283;52.504;13.358;2023-05-25T09:04:55;102073.28;;;19.53;43.52
41596;BME280;27283;52.504;13.358;2023-05-25T09:07:29;102081.63;;;19.88;44.59
41596;BME280;27283;52.504;13.358;2023-05-25T09:10:05;102080.53;;;19.67;44.50
41596;BME280;27283;52.504;13.358;2023-05-25T09:12:38;102082.28;;;20.40;42.46
41596;BME280;27283;52.504;13.358;2023-05-25T09:15:17;102080.59;;;20.39;43.49
41596;BME280;27283;52.504;13.358;2023-05-25T09:17:51;102085.28;;;20.80;43.19
41596;BME280;27283;52.504;13.358;2023-05-25T09:20:25;102089.19;;;20.35;41.81
41596;BME280;27283;52.504;13.358;2023-05-25T09:23:00;102090.50;;;20.46;41.75
41596;BME280;27283;52.504;13.358;2023-05-25T09:25:34;102084.00;;;21.17;40.73
41596;BME280;27283;52.504;13.358;2023-05-25T09:28:07;102083.66;;;20.00;41.81
41596;BME280;27283;52.504;13.358;2023-05-25T09:31:14;102086.03;;;19.16;45.00
41596;BME280;27283;52.504;13.358;2023-05-25T09:33:59;102089.66;;;18.86;45.30
41596;BME280;27283;52.504;13.358;2023-05-25T09:36:42;102086.81;;;18.94;46.36
41596;BME280;27283;52.504;13.358;2023-05-25T09:39:16;102089.81;;;19.51;47.94
41596;BME280;27283;52.504;13.358;2023-05-25T09:41:50;102098.72;;;20.75;44.28
41596;BME280;27283;52.504;13.358;2023-05-25T09:57:40;102088.66;;;19.39;45.21
41596;BME280;27283;52.504;13.358;2023-05-25T10:00:28;102094.84;;;19.47;45.16
41596;BME280;27283;52.504;13.358;2023-05-25T10:03:11;102099.78;;;20.24;43.00
41596;BME280;27283;52.504;13.358;2023-05-25T10:06:23;102099.97;;;21.75;42.27
41596;BME280;27283;52.504;13.358;2023-05-25T10:09:30;102101.13;;;20.63;40.00
41596;BME280;27283;52.504;13.358;2023-05-25T10:13:12;102099.13;;;20.71;40.85
41596;BME280;27283;52.504;13.358;2023-05-25T10:16:44;102109.41;;;20.41;42.26
41596;BME280;27283;52.504;13.358;2023-05-25T10:20:08;102097.03;;;19.95;43.35
41596;BME280;27283;52.504;13.358;2023-05-25T10:23:17;102091.53;;;21.57;40.34
41596;BME280;27283;52.504;13.358;2023-05-25T10:26:42;102103.41;;;20.87;39.70
41596;BME280;27283;52.504;13.358;2023-05-25T10:44:46;102098.00;;;20.94;40.50
41596;BME280;27283;52.504;13.358;2023-05-25T10:48:01;102094.56;;;22.29;39.15
41596;BME280;27283;52.504;13.358;2023-05-25T10:55:28;102094.94;;;21.17;40.15
41596;BME280;27283;52.504;13.358;2023-05-25T10:58:55;102090.69;;;21.63;40.04
41596;BME280;27283;52.504;13.358;2023-05-25T11:37:53;102100.56;;;20.67;42.69
41596;BME280;27283;52.504;13.358;2023-05-25T11:41:35;102101.06;;;20.56;43.04
41596;BME280;27283;52.504;13.358;2023-05-25T11:48:25;102100.84;;;20.79;42.40
41596;BME280;27283;52.504;13.358;2023-05-25T11:51:04;102094.34;;;19.80;44.64
41596;BME280;27283;52.504;13.358;2023-05-25T11:53:44;102091.16;;;20.20;43.57
41596;BME280;27283;52.504;13.358;2023-05-25T11:56:18;102091.75;;;20.44;43.30
41596;BME280;27283;52.504;13.358;2023-05-25T11:59:06;102092.41;;;20.17;44.21
41596;BME280;27283;52.504;13.358;2023-05-25T12:01:40;102089.69;;;20.46;44.53
41596;BME280;27283;52.504;13.358;2023-05-25T12:04:14;102085.47;;;20.71;44.17
41596;BME280;27283;52.504;13.358;2023-05-25T12:07:34;102083.34;;;19.52;47.17
41596;BME280;27283;52.504;13.358;2023-05-25T12:10:31;102085.88;;;18.72;49.83
41596;BME280;27283;52.504;13.358;2023-05-25T12:13:04;102089.25;;;19.04;49.57
41596;BME280;27283;52.504;13.358;2023-05-25T12:15:39;102081.84;;;19.13;49.69
41596;BME280;27283;52.504;13.358;2023-05-25T12:18:13;102082.31;;;18.87;50.00
41596;BME280;27283;52.504;13.358;2023-05-25T12:20:45;102083.03;;;18.66;51.71
41596;BME280;27283;52.504;13.358;2023-05-25T12:23:18;102093.31;;;19.08;51.36
41596;BME280;27283;52.504;13.358;2023-05-25T12:26:12;102083.59;;;18.76;51.87
41596;BME280;27283;52.504;13.358;2023-05-25T12:28:58;102091.38;;;18.64;52.63
41596;BME280;27283;52.504;13.358;2023-05-25T12:31:32;102085.53;;;18.52;53.74
41596;BME280;27283;52.504;13.358;2023-05-25T12:34:08;102093.47;;;18.62;53.16
41596;BME280;27283;52.504;13.358;2023-05-25T12:36:48;102082.91;;;17.83;55.26
41596;BME280;27283;52.504;13.358;2023-05-25T12:39:35;102081.19;;;18.28;55.68
41596;BME280;27283;52.504;13.358;2023-05-25T12:42:15;102084.25;;;18.78;53.53
41596;BME280;27283;52.504;13.358;2023-05-25T12:44:53;102078.03;;;19.29;52.52
41596;BME280;27283;52.504;13.358;2023-05-25T12:47:27;102077.03;;;19.00;51.75
41596;BME280;27283;52.504;13.358;2023-05-25T12:50:11;102085.91;;;19.02;52.50
41596;BME280;27283;52.504;13.358;2023-05-25T12:52:46;102086.69;;;18.58;52.58
41596;BME280;27283;52.504;13.358;2023-05-25T12:55:24;102080.94;;;18.00;53.64
41596;BME280;27283;52.504;13.358;2023-05-25T12:58:01;102075.16;;;18.03;54.18
41596;BME280;27283;52.504;13.358;2023-05-25T13:00:35;102074.84;;;18.36;53.10
41596;BME280;27283;52.504;13.358;2023-05-25T13:03:09;102075.19;;;18.86;52.09
41596;BME280;27283;52.504;13.358;2023-05-25T13:05:42;102075.53;;;18.98;51.22
41596;BME280;27283;52.504;13.358;2023-05-25T13:08:15;102070.28;;;18.81;51.64
41596;BME280;27283;52.504;13.358;2023-05-25T13:10:49;102070.81;;;19.06;51.47
41596;BME280;27283;52.504;13.358;2023-05-25T13:13:25;102072.88;;;18.45;52.48
41596;BME280;27283;52.504;13.358;2023-05-25T13:15:57;102062.19;;;18.05;54.59
41596;BME280;27283;52.504;13.358;2023-05-25T13:18:30;102058.75;;;18.26;54.50
41596;BME280;27283;52.504;13.358;2023-05-25T13:21:03;102059.75;;;18.63;52.18
41596;BME280;27283;52.504;13.358;2023-05-25T13:23:37;102055.72;;;19.04;51.87
41596;BME280;27283;52.504;13.358;2023-05-25T13:26:13;102062.38;;;18.71;52.89
41596;BME280;27283;52.504;13.358;2023-05-25T13:29:21;102055.31;;;18.47;53.95
41596;BME280;27283;52.504;13.358;2023-05-25T13:32:51;102057.88;;;18.93;53.90
41596;BME280;27283;52.504;13.358;2023-05-25T13:35:24;102055.50;;;18.60;54.18
41596;BME280;27283;52.504;13.358;2023-05-25T13:38:10;102056.22;;;18.24;55.73
41596;BME280;27283;52.504;13.358;2023-05-25T13:41:08;102054.44;;;17.70;55.88
41596;BME280;27283;52.504;13.358;2023-05-25T13:43:41;102056.22;;;18.24;54.01
41596;BME280;27283;52.504;13.358;2023-05-25T13:46:15;102049.50;;;18.80;51.96
41596;BME280;27283;52.504;13.358;2023-05-25T13:49:03;102049.22;;;19.05;51.43
41596;BME280;27283;52.504;13.358;2023-05-25T13:51:35;102059.06;;;19.21;50.44
41596;BME280;27283;52.504;13.358;2023-05-25T13:54:08;102048.34;;;19.19;49.55
41596;BME280;27283;52.504;13.358;2023-05-25T13:56:40;102045.25;;;19.22;49.84
41596;BME280;27283;52.504;13.358;2023-05-25T13:59:13;102038.44;;;18.97;49.69
41596;BME280;27283;52.504;13.358;2023-05-25T14:01:48;102045.88;;;19.24;49.70
41596;BME280;27283;52.504;13.358;2023-05-25T14:04:24;102048.81;;;19.44;48.53
41596;BME280;27283;52.504;13.358;2023-05-25T14:06:56;102032.53;;;19.51;48.56
41596;BME280;27283;52.504;13.358;2023-05-25T14:09:31;102042.38;;;19.89;48.23
41596;BME280;27283;52.504;13.358;2023-05-25T14:12:04;102039.09;;;20.00;47.54
41596;BME280;27283;52.504;13.358;2023-05-25T14:14:37;102047.59;;;20.12;47.19
41596;BME280;27283;52.504;13.358;2023-05-25T14:17:12;102037.16;;;19.94;47.10
41596;BME280;27283;52.504;13.358;2023-05-25T14:19:45;102041.31;;;19.68;48.12
41596;BME280;27283;52.504;13.358;2023-05-25T14:22:45;102038.91;;;19.22;50.06
41596;BME280;27283;52.504;13.358;2023-05-25T14:25:48;102037.09;;;19.07;49.72
41596;BME280;27283;52.504;13.358;2023-05-25T14:31:13;102035.78;;;18.88;49.62
41596;BME280;27283;52.504;13.358;2023-05-25T14:33:48;102041.91;;;19.05;50.08
41596;BME280;27283;52.504;13.358;2023-05-25T14:36:22;102035.84;;;19.46;49.16
41596;BME280;27283;52.504;13.358;2023-05-25T14:38:54;102025.72;;;19.62;47.92
41596;BME280;27283;52.504;13.358;2023-05-25T14:41:27;102035.97;;;19.38;48.56
41596;BME280;27283;52.504;13.358;2023-05-25T14:44:00;102029.56;;;19.09;48.94
41596;BME280;27283;52.504;13.358;2023-05-25T14:46:33;102034.44;;;19.14;49.22
41596;BME280;27283;52.504;13.358;2023-05-25T14:49:08;102024.00;;;19.18;47.87
41596;BME280;27283;52.504;13.358;2023-05-25T14:51:42;102031.66;;;18.63;49.34
41596;BME280;27283;52.504;13.358;2023-05-25T14:54:14;102031.94;;;18.68;49.78
41596;BME280;27283;52.504;13.358;2023-05-25T14:56:48;102034.19;;;18.49;49.77
41596;BME280;27283;52.504;13.358;2023-05-25T14:59:20;102035.88;;;18.65;50.10
41596;BME280;27283;52.504;13.358;2023-05-25T15:01:53;102035.13;;;18.71;48.87
41596;BME280;27283;52.504;13.358;2023-05-25T15:04:28;102029.13;;;18.91;49.38
41596;BME280;27283;52.504;13.358;2023-05-25T15:07:01;102032.09;;;19.11;49.10
41596;BME280;27283;52.504;13.358;2023-05-25T15:09:34;102021.13;;;19.04;48.04
41596;BME280;27283;52.504;13.358;2023-05-25T15:12:06;102020.22;;;19.19;47.26
41596;BME280;27283;52.504;13.358;2023-05-25T15:14:40;102021.53;;;19.23;47.87
41596;BME280;27283;52.504;13.358;2023-05-25T15:17:13;102020.69;;;18.86;48.01
41596;BME280;27283;52.504;13.358;2023-05-25T15:19:49;102017.59;;;18.89;48.01
41596;BME280;27283;52.504;13.358;2023-05-25T15:22:21;102014.91;;;19.10;48.13
41596;BME280;27283;52.504;13.358;2023-05-25T15:25:05;102019.16;;;18.68;48.26
41596;BME280;27283;52.504;13.358;2023-05-25T15:27:39;102020.19;;;18.97;47.94
41596;BME280;27283;52.504;13.358;2023-05-25T15:30:12;102018.03;;;18.92;47.54
41596;BME280;27283;52.504;13.358;2023-05-25T15:32:45;102015.75;;;18.96;47.21
41596;BME280;27283;52.504;13.358;2023-05-25T15:35:21;102017.75;;;19.02;47.59
41596;BME280;27283;52.504;13.358;2023-05-25T15:38:00;102013.69;;;19.13;46.99
41596;BME280;27283;52.504;13.358;2023-05-25T15:40:32;102017.25;;;18.84;47.36
41596;BME280;27283;52.504;13.358;2023-05-25T15:43:05;102017.25;;;18.84;47.61
41596;BME280;27283;52.504;13.358;2023-05-25T15:45:38;102018.06;;;19.14;47.47
41596;BME280;27283;52.504;13.358;2023-05-25T15:48:11;102018.84;;;18.78;47.25
41596;BME280;27283;52.504;13.358;2023-05-25T15:50:46;102018.69;;;18.80;47.65
41596;BME280;27283;52.504;13.358;2023-05-25T15:53:19;102022.34;;;18.87;47.48
41596;BME280;27283;52.504;13.358;2023-05-25T15:55:52;102021.03;;;18.68;48.03
41596;BME280;27283;52.504;13.358;2023-05-25T15:58:25;102021.63;;;18.63;48.53
41596;BME280;27283;52.504;13.358;2023-05-25T16:00:59;102013.06;;;18.81;47.75
41596;BME280;27283;52.504;13.358;2023-05-25T16:03:33;102012.56;;;18.77;47.35
41596;BME280;27283;52.504;13.358;2023-05-25T16:06:08;102007.13;;;18.77;46.74
41596;BME280;27283;52.504;13.358;2023-05-25T16:08:40;102007.94;;;18.78;46.92
41596;BME280;27283;52.504;13.358;2023-05-25T16:11:33;102010.31;;;18.81;46.58
41596;BME280;27283;52.504;13.358;2023-05-25T16:14:05;102003.66;;;18.69;46.86
41596;BME280;27283;52.504;13.358;2023-05-25T16:16:37;102006.19;;;18.55;47.19
41596;BME280;27283;52.504;13.358;2023-05-25T16:19:10;102005.84;;;18.58;48.02
41596;BME280;27283;52.504;13.358;2023-05-25T16:21:45;102010.91;;;18.62;47.98
41596;BME280;27283;52.504;13.358;2023-05-25T16:24:18;102011.38;;;18.50;48.06
41596;BME280;27283;52.504;13.358;2023-05-25T16:27:01;102010.22;;;18.30;48.76
41596;BME280;27283;52.504;13.358;2023-05-25T16:35:49;101995.59;;;18.31;49.29
41596;BME280;27283;52.504;13.358;2023-05-25T16:38:49;102000.75;;;18.26;49.47
41596;BME280;27283;52.504;13.358;2023-05-25T16:41:22;102002.91;;;18.30;49.33